Terminal Aerodrome Forecast
Issued by NWS Lake Charles, LA

Home | Current Version | Previous Version | Text Only | Print | Product List | Glossary On
Versions: 1 2 3 4 5 6 7 8 9 10 11 12
000
FTUS44 KLCH 240500
TAFARA
TAF
KARA 240520Z 2406/2506 13003KT 6SM BR SCT050 SCT150
     FM240700 VRB03KT 3SM BR SCT050 SCT150
     FM241500 32004KT P6SM VCTS SCT030CB BKN150
     FM250000 VRB03KT P6SM SCT035 BKN080 BKN150=

USA.gov is the U.S. government's official web portal to all federal, state and local government web resources and services.